Time;durP1;ratioP1;P1;durP2;ratioP2;P2;SDS_P1;SDS_P2;PMS_P1;PMS_P2;Temp;Humidity;BMP_temperature;BMP_pressure;BME280_temperature;BME280_humidity;BME280_pressure;Samples;Min_cycle;Max_cycle;Signal;HPM_P1;HPM_P2
2022/01/01 00:00:49;;;;;;;;;;;;;;;;;;7394333;19;19919;-54
2022/01/01 00:03:16;;;;;;;;;;;;;;;;;;7394211;19;20388;-54
2022/01/01 00:05:44;;;;;;;;;;;;;;;;;;7393714;19;20344;-56
2022/01/01 00:08:12;;;;;;;;;;;;;;;;;;7393878;19;19914;-49
2022/01/01 00:10:39;;;;;;;;;;;;;;;;;;7393563;19;19972;-56
2022/01/01 00:13:13;;;;;;;;;;;;;;;;;;7398338;19;19918;-50
2022/01/01 00:15:40;;;;;;;;;;;;;;;;;;7393131;19;19925;-52
2022/01/01 00:18:07;;;;;;;;;;;;;;;;;;7393248;19;19918;-51
2022/01/01 00:20:35;;;;;;;;;;;;;;;;;;7393259;19;19925;-61
2022/01/01 00:23:02;;;;;;;;;;;;;;;;;;7393444;19;19931;-52
2022/01/01 00:25:29;;;;;;;;;;;;;;;;;;7393569;19;19936;-63
2022/01/01 00:27:56;;;;;;;;;;;;;;;;;;7390679;19;20328;-54
2022/01/01 00:30:23;;;;;;;;;;;;;;;;;;7391443;19;19917;-54
2022/01/01 00:32:51;;;;;;;;;;;;;;;;;;7391129;19;19950;-54
2022/01/01 00:35:18;;;;;;;;;;;;;;;;;;7392384;19;19918;-51
2022/01/01 00:37:45;;;;;;;;;;;;;;;;;;7392669;19;19923;-53
2022/01/01 00:40:12;;;;;;;;;;;;;;;;;;7392338;19;19935;-51
2022/01/01 00:42:39;;;;;;;;;;;;;;;;;;7393030;19;19932;-51
2022/01/01 00:45:07;;;;;;;;;;;;;;;;;;7392295;19;19919;-53
2022/01/01 00:47:34;;;;;;;;;;;;;;;;;;7392658;19;20289;-63
2022/01/01 00:50:01;;;;;;;;;;;;;;;;;;7393019;19;19966;-52
2022/01/01 00:52:28;;;;;;;;;;;;;;;;;;7390862;19;19911;-52
2022/01/01 00:54:56;;;;;;;;;;;;;;;;;;7392865;19;19918;-51
2022/01/01 00:57:23;;;;;;;;;;;;;;;;;;7393083;19;19932;-62
2022/01/01 00:59:50;;;;;;;;;;;;;;;;;;7391676;19;19919;-59
2022/01/01 01:02:17;;;;;;;;;;;;;;;;;;7391886;19;20368;-55
2022/01/01 01:04:44;;;;;;;;;;;;;;;;;;7391930;19;19918;-58
2022/01/01 01:07:12;;;;;;;;;;;;;;;;;;7391675;19;19914;-65
2022/01/01 01:09:39;;;;;;;;;;;;;;;;;;7392382;19;19919;-61
2022/01/01 01:12:06;;;;;;;;;;;;;;;;;;7390595;19;19915;-53
2022/01/01 01:14:40;;;;;;;;;;;;;;;;;;7392014;19;19942;-65
2022/01/01 01:17:08;;;;;;;;;;;;;;;;;;7391959;19;19918;-56
2022/01/01 01:19:36;;;;;;;;;;;;;;;;;;7392019;19;19919;-53
2022/01/01 01:22:03;;;;;;;;;;;;;;;;;;7392158;19;19926;-65
2022/01/01 01:24:30;;;;;;;;;;;;;;;;;;7390923;19;19975;-59
2022/01/01 01:27:01;;;;;;;;;;;;;;;;;;7391950;19;19978;-57
2022/01/01 01:29:33;;;;;;;;;;;;;;;;;;7391742;19;19918;-57
2022/01/01 01:32:00;;;;;;;;;;;;;;;;;;7391014;19;19990;-61
2022/01/01 01:34:27;;;;;;;;;;;;;;;;;;7391588;19;19910;-61
2022/01/01 01:36:55;;;;;;;;;;;;;;;;;;7391898;19;19922;-65
2022/01/01 01:39:22;;;;;;;;;;;;;;;;;;7396190;19;19919;-64
2022/01/01 01:41:52;;;;;;;;;;;;;;;;;;7399121;19;19911;-61
2022/01/01 01:44:23;;;;;;;;;;;;;;;;;;7398812;19;19921;-52
2022/01/01 01:46:50;;;;;;;;;;;;;;;;;;7398995;19;19925;-60
2022/01/01 01:49:18;;;;;;;;;;;;;;;;;;7399165;19;19933;-59
2022/01/01 01:51:45;;;;;;;;;;;;;;;;;;7397651;19;19935;-66
2022/01/01 01:54:16;;;;;;;;;;;;;;;;;;7398035;19;19918;-65
2022/01/01 01:56:45;;;;;;;;;;;;;;;;;;7398469;19;19911;-66
2022/01/01 01:59:13;;;;;;;;;;;;;;;;;;7398344;19;19914;-55
2022/01/01 02:01:40;;;;;;;;;;;;;;;;;;7398381;19;19918;-60
2022/01/01 02:04:07;;;;;;;;;;;;;;;;;;7398521;19;19919;-58
2022/01/01 02:06:35;;;;;;;;;;;;;;;;;;7398411;19;20025;-59
2022/01/01 02:09:02;;;;;;;;;;;;;;;;;;7398212;19;19939;-54
2022/01/01 02:11:30;;;;;;;;;;;;;;;;;;7401249;19;19911;-52
2022/01/01 02:18:52;;;;;;;;;;;;;;;;;;7397232;19;19925;-57
2022/01/01 02:21:20;;;;;;;;;;;;;;;;;;7397954;19;19922;-65
2022/01/01 02:23:48;;;;;;;;;;;;;;;;;;7397655;19;19930;-54
2022/01/01 02:26:16;;;;;;;;;;;;;;;;;;7397351;19;20455;-57
2022/01/01 02:28:44;;;;;;;;;;;;;;;;;;7397454;19;19924;-50
2022/01/01 02:31:11;;;;;;;;;;;;;;;;;;7395143;19;20340;-60
2022/01/01 02:33:39;;;;;;;;;;;;;;;;;;7397010;19;19923;-63
2022/01/01 02:36:06;;;;;;;;;;;;;;;;;;7394585;19;20365;-55
2022/01/01 02:38:34;;;;;;;;;;;;;;;;;;7397161;19;19919;-54
2022/01/01 02:41:01;;;;;;;;;;;;;;;;;;7396719;19;19978;-58
2022/01/01 02:43:28;;;;;;;;;;;;;;;;;;7396991;19;19935;-65
2022/01/01 02:45:56;;;;;;;;;;;;;;;;;;7396740;19;20304;-56
2022/01/01 02:48:23;;;;;;;;;;;;;;;;;;7397083;19;19914;-65
2022/01/01 02:50:51;;;;;;;;;;;;;;;;;;7397461;19;19935;-54
2022/01/01 02:53:18;;;;;;;;;;;;;;;;;;7394412;19;19938;-56
2022/01/01 02:55:46;;;;;;;;;;;;;;;;;;7396858;19;19915;-64
2022/01/01 02:58:13;;;;;;;;;;;;;;;;;;7396330;19;19914;-56
2022/01/01 03:00:40;;;;;;;;;;;;;;;;;;7396057;19;19915;-60
2022/01/01 03:03:07;;;;;;;;;;;;;;;;;;7395599;19;20007;-54
2022/01/01 03:05:36;;;;;;;;;;;;;;;;;;7396080;19;19915;-64
2022/01/01 03:08:04;;;;;;;;;;;;;;;;;;7396216;19;19910;-48
2022/01/01 03:10:31;;;;;;;;;;;;;;;;;;7397485;19;19919;-64
2022/01/01 03:12:58;;;;;;;;;;;;;;;;;;7394232;19;19943;-59
2022/01/01 03:15:25;;;;;;;;;;;;;;;;;;7396214;19;19922;-61
2022/01/01 03:17:53;;;;;;;;;;;;;;;;;;7396266;19;19919;-64
2022/01/01 03:20:20;;;;;;;;;;;;;;;;;;7395512;19;19918;-53
2022/01/01 03:22:47;;;;;;;;;;;;;;;;;;7395856;19;19929;-56
2022/01/01 03:25:14;;;;;;;;;;;;;;;;;;7395137;19;19939;-51
2022/01/01 03:27:41;;;;;;;;;;;;;;;;;;7395368;19;19925;-63
2022/01/01 03:30:09;;;;;;;;;;;;;;;;;;7395240;19;20259;-51
2022/01/01 03:32:36;;;;;;;;;;;;;;;;;;7394240;19;19914;-63
2022/01/01 03:35:03;;;;;;;;;;;;;;;;;;7394946;19;19918;-60
2022/01/01 03:37:31;;;;;;;;;;;;;;;;;;7395448;19;19918;-49
2022/01/01 03:39:58;;;;;;;;;;;;;;;;;;7395136;19;19914;-53
2022/01/01 03:42:25;;;;;;;;;;;;;;;;;;7395298;19;19919;-66
2022/01/01 03:44:52;;;;;;;;;;;;;;;;;;7396245;19;19919;-57
2022/01/01 03:47:19;;;;;;;;;;;;;;;;;;7395049;19;19915;-54
2022/01/01 03:49:47;;;;;;;;;;;;;;;;;;7395899;19;20704;-65
2022/01/01 03:52:14;;;;;;;;;;;;;;;;;;7393867;19;20334;-65
2022/01/01 03:54:41;;;;;;;;;;;;;;;;;;7394178;19;20343;-48
2022/01/01 03:57:08;;;;;;;;;;;;;;;;;;7394020;19;19914;-51
2022/01/01 03:59:35;;;;;;;;;;;;;;;;;;7394351;19;19911;-54
2022/01/01 04:02:03;;;;;;;;;;;;;;;;;;7393192;19;19923;-56
2022/01/01 04:04:30;;;;;;;;;;;;;;;;;;7394368;19;19911;-55
2022/01/01 04:06:58;;;;;;;;;;;;;;;;;;7393842;19;19914;-58
2022/01/01 04:09:25;;;;;;;;;;;;;;;;;;7394302;19;19988;-65
2022/01/01 04:11:52;;;;;;;;;;;;;;;;;;7393551;19;19954;-65
2022/01/01 04:14:19;;;;;;;;;;;;;;;;;;7393824;19;19918;-65
2022/01/01 04:16:47;;;;;;;;;;;;;;;;;;7393984;19;19915;-65
2022/01/01 04:19:14;;;;;;;;;;;;;;;;;;7393405;19;20654;-64
2022/01/01 04:21:41;;;;;;;;;;;;;;;;;;7393442;19;19915;-54
2022/01/01 04:24:09;;;;;;;;;;;;;;;;;;7393862;19;20010;-66
2022/01/01 04:26:36;;;;;;;;;;;;;;;;;;7395534;19;21480;-65
2022/01/01 04:29:04;;;;;;;;;;;;;;;;;;7393456;19;19918;-66
2022/01/01 04:31:31;;;;;;;;;;;;;;;;;;7393425;19;19918;-53
2022/01/01 04:33:58;;;;;;;;;;;;;;;;;;7393034;19;19960;-56
2022/01/01 04:36:26;;;;;;;;;;;;;;;;;;7391928;19;19923;-52
2022/01/01 04:38:53;;;;;;;;;;;;;;;;;;7393319;19;19910;-65
2022/01/01 04:41:20;;;;;;;;;;;;;;;;;;7393341;19;19996;-56
2022/01/01 04:43:48;;;;;;;;;;;;;;;;;;7393074;19;19970;-53
2022/01/01 04:46:15;;;;;;;;;;;;;;;;;;7392957;19;20285;-53
2022/01/01 04:48:43;;;;;;;;;;;;;;;;;;7392779;19;19947;-58
2022/01/01 04:51:11;;;;;;;;;;;;;;;;;;7396264;19;19915;-54
2022/01/01 04:53:44;;;;;;;;;;;;;;;;;;7391337;19;19937;-55
2022/01/01 04:56:17;;;;;;;;;;;;;;;;;;7390852;19;19914;-66
2022/01/01 04:58:44;;;;;;;;;;;;;;;;;;7393186;19;19914;-48
2022/01/01 05:01:12;;;;;;;;;;;;;;;;;;7392425;19;19915;-65
2022/01/01 05:03:40;;;;;;;;;;;;;;;;;;7392417;19;19962;-52
2022/01/01 05:06:07;;;;;;;;;;;;;;;;;;7392351;19;19919;-66
2022/01/01 05:08:34;;;;;;;;;;;;;;;;;;7392512;19;19921;-48
2022/01/01 05:11:01;;;;;;;;;;;;;;;;;;7392159;19;19925;-49
2022/01/01 05:13:29;;;;;;;;;;;;;;;;;;7388931;19;19915;-56
2022/01/01 05:15:56;;;;;;;;;;;;;;;;;;7392388;19;20335;-63
2022/01/01 05:18:24;;;;;;;;;;;;;;;;;;7392724;19;19950;-64
2022/01/01 05:20:51;;;;;;;;;;;;;;;;;;7392024;19;19917;-51
2022/01/01 05:23:18;;;;;;;;;;;;;;;;;;7392073;19;19939;-59
2022/01/01 05:25:45;;;;;;;;;;;;;;;;;;7391954;19;19919;-66
2022/01/01 05:28:12;;;;;;;;;;;;;;;;;;7391727;19;19914;-65
2022/01/01 05:30:40;;;;;;;;;;;;;;;;;;7391812;19;19914;-49
2022/01/01 05:33:07;;;;;;;;;;;;;;;;;;7391277;19;19942;-61
2022/01/01 05:35:34;;;;;;;;;;;;;;;;;;7389836;19;20340;-59
2022/01/01 05:38:01;;;;;;;;;;;;;;;;;;7391200;19;20363;-49
2022/01/01 05:40:48;;;;;;;;;;;;;;;;;;7391621;19;20383;-57
2022/01/01 05:43:16;;;;;;;;;;;;;;;;;;7389945;19;19921;-49
2022/01/01 05:45:44;;;;;;;;;;;;;;;;;;7391645;19;19926;-57
2022/01/01 05:48:11;;;;;;;;;;;;;;;;;;7391028;19;19919;-53
2022/01/01 05:50:38;;;;;;;;;;;;;;;;;;7394222;19;19939;-59
2022/01/01 05:53:06;;;;;;;;;;;;;;;;;;7388751;19;19919;-53
2022/01/01 05:55:33;;;;;;;;;;;;;;;;;;7390863;19;19970;-51
2022/01/01 05:58:00;;;;;;;;;;;;;;;;;;7390848;19;19926;-67
2022/01/01 06:00:28;;;;;;;;;;;;;;;;;;7389970;19;19925;-51
2022/01/01 06:02:56;;;;;;;;;;;;;;;;;;7391380;19;19915;-56
2022/01/01 06:05:24;;;;;;;;;;;;;;;;;;7391136;19;19923;-57
2022/01/01 06:07:51;;;;;;;;;;;;;;;;;;7391070;19;19915;-64
2022/01/01 06:10:18;;;;;;;;;;;;;;;;;;7390629;19;20827;-65
2022/01/01 06:12:45;;;;;;;;;;;;;;;;;;7390126;19;19922;-56
2022/01/01 06:15:12;;;;;;;;;;;;;;;;;;7390080;19;20426;-51
2022/01/01 06:17:40;;;;;;;;;;;;;;;;;;7391008;19;19907;-63
2022/01/01 06:20:07;;;;;;;;;;;;;;;;;;7390607;19;19925;-67
2022/01/01 06:22:44;;;;;;;;;;;;;;;;;;7390074;19;19923;-64
2022/01/01 06:25:12;;;;;;;;;;;;;;;;;;7391283;19;20325;-54
2022/01/01 06:27:39;;;;;;;;;;;;;;;;;;7397666;19;19986;-61
2022/01/01 06:30:06;;;;;;;;;;;;;;;;;;7397405;19;19915;-61
2022/01/01 06:32:34;;;;;;;;;;;;;;;;;;7396609;19;19925;-63
2022/01/01 06:35:02;;;;;;;;;;;;;;;;;;7396541;19;19918;-64
2022/01/01 06:37:29;;;;;;;;;;;;;;;;;;7396838;19;19968;-61
2022/01/01 06:39:56;;;;;;;;;;;;;;;;;;7397750;19;19933;-52
2022/01/01 06:42:23;;;;;;;;;;;;;;;;;;7397628;19;19907;-49
2022/01/01 06:44:51;;;;;;;;;;;;;;;;;;7396974;19;19911;-60
2022/01/01 06:47:18;;;;;;;;;;;;;;;;;;7397270;19;19959;-49
2022/01/01 06:49:45;;;;;;;;;;;;;;;;;;7397905;19;19918;-50
2022/01/01 06:52:12;;;;;;;;;;;;;;;;;;7396363;19;19974;-64
2022/01/01 06:54:39;;;;;;;;;;;;;;;;;;7396775;19;19919;-61
2022/01/01 06:57:07;;;;;;;;;;;;;;;;;;7396431;19;20327;-56
2022/01/01 06:59:34;;;;;;;;;;;;;;;;;;7396564;19;19921;-48
2022/01/01 07:02:01;;;;;;;;;;;;;;;;;;7395899;19;20350;-50
2022/01/01 07:04:28;;;;;;;;;;;;;;;;;;7396724;19;19922;-56
2022/01/01 07:06:56;;;;;;;;;;;;;;;;;;7396382;19;19917;-54
2022/01/01 07:09:23;;;;;;;;;;;;;;;;;;7396308;19;20336;-50
2022/01/01 07:11:50;;;;;;;;;;;;;;;;;;7395925;19;20410;-54
2022/01/01 07:14:21;;;;;;;;;;;;;;;;;;7394284;19;19938;-63
2022/01/01 07:16:48;;;;;;;;;;;;;;;;;;7396182;19;20328;-52
2022/01/01 07:19:15;;;;;;;;;;;;;;;;;;7395735;19;19911;-52
2022/01/01 07:21:43;;;;;;;;;;;;;;;;;;7395594;19;19922;-64
2022/01/01 07:24:10;;;;;;;;;;;;;;;;;;7399937;19;19929;-52
2022/01/01 07:26:37;;;;;;;;;;;;;;;;;;7396102;19;19925;-54
2022/01/01 07:29:04;;;;;;;;;;;;;;;;;;7395576;19;19974;-55
2022/01/01 07:31:31;;;;;;;;;;;;;;;;;;7395790;19;19913;-63
2022/01/01 07:33:59;;;;;;;;;;;;;;;;;;7394115;19;19931;-52
2022/01/01 07:36:26;;;;;;;;;;;;;;;;;;7392400;19;19935;-51
2022/01/01 07:38:56;;;;;;;;;;;;;;;;;;7395346;19;19922;-51
2022/01/01 07:41:23;;;;;;;;;;;;;;;;;;7394925;19;19919;-52
2022/01/01 07:43:50;;;;;;;;;;;;;;;;;;7395156;19;19986;-54
2022/01/01 07:46:17;;;;;;;;;;;;;;;;;;7394739;19;19922;-62
2022/01/01 07:48:44;;;;;;;;;;;;;;;;;;7394240;19;20343;-48
2022/01/01 07:51:12;;;;;;;;;;;;;;;;;;7398520;19;19922;-64
2022/01/01 07:53:39;;;;;;;;;;;;;;;;;;7393779;19;19947;-53
2022/01/01 07:56:06;;;;;;;;;;;;;;;;;;7394765;19;19939;-62
2022/01/01 07:58:33;;;;;;;;;;;;;;;;;;7393513;19;19917;-49
2022/01/01 08:01:00;;;;;;;;;;;;;;;;;;7394513;19;19919;-50
2022/01/01 08:03:27;;;;;;;;;;;;;;;;;;7394401;19;20329;-52
2022/01/01 08:05:55;;;;;;;;;;;;;;;;;;7394587;19;19921;-61
2022/01/01 08:08:22;;;;;;;;;;;;;;;;;;7393928;19;19921;-50
2022/01/01 08:10:49;;;;;;;;;;;;;;;;;;7393826;19;19978;-55
2022/01/01 08:13:24;;;;;;;;;;;;;;;;;;7393294;19;19910;-48
2022/01/01 08:15:53;;;;;;;;;;;;;;;;;;7394120;19;19907;-51
2022/01/01 08:18:20;;;;;;;;;;;;;;;;;;7393735;19;19922;-54
2022/01/01 08:20:47;;;;;;;;;;;;;;;;;;7393683;19;19943;-65
2022/01/01 08:23:15;;;;;;;;;;;;;;;;;;7393612;19;19914;-63
2022/01/01 08:25:42;;;;;;;;;;;;;;;;;;7393402;19;19923;-51
2022/01/01 08:28:10;;;;;;;;;;;;;;;;;;7393101;19;19911;-53
2022/01/01 08:30:37;;;;;;;;;;;;;;;;;;7393578;19;20324;-50
2022/01/01 08:33:04;;;;;;;;;;;;;;;;;;7393106;19;19943;-65
2022/01/01 08:35:40;;;;;;;;;;;;;;;;;;7391853;19;19978;-58
2022/01/01 08:38:27;;;;;;;;;;;;;;;;;;7392906;19;19918;-54
2022/01/01 08:41:16;;;;;;;;;;;;;;;;;;7393014;19;20425;-58
2022/01/01 08:43:43;;;;;;;;;;;;;;;;;;7393391;19;19991;-65
2022/01/01 08:46:11;;;;;;;;;;;;;;;;;;7392841;19;19933;-59
2022/01/01 08:48:38;;;;;;;;;;;;;;;;;;7393320;19;20336;-52
2022/01/01 08:51:19;;;;;;;;;;;;;;;;;;7396492;19;20379;-58
2022/01/01 08:53:47;;;;;;;;;;;;;;;;;;7392262;19;20233;-50
2022/01/01 08:56:14;;;;;;;;;;;;;;;;;;7392945;19;19919;-55
2022/01/01 08:58:41;;;;;;;;;;;;;;;;;;7392523;19;20343;-50
2022/01/01 09:01:08;;;;;;;;;;;;;;;;;;7392510;19;19964;-66
2022/01/01 09:03:36;;;;;;;;;;;;;;;;;;7392364;19;19922;-57
2022/01/01 09:06:04;;;;;;;;;;;;;;;;;;7392523;19;19922;-50
2022/01/01 09:08:32;;;;;;;;;;;;;;;;;;7392474;19;19915;-54
2022/01/01 09:10:59;;;;;;;;;;;;;;;;;;7392636;19;19918;-52
2022/01/01 09:13:27;;;;;;;;;;;;;;;;;;7391690;19;19919;-53
2022/01/01 09:15:54;;;;;;;;;;;;;;;;;;7390751;19;19925;-64
2022/01/01 09:18:21;;;;;;;;;;;;;;;;;;7392052;19;19918;-57
2022/01/01 09:20:48;;;;;;;;;;;;;;;;;;7392004;19;19919;-50
2022/01/01 09:23:16;;;;;;;;;;;;;;;;;;7391652;19;20344;-50
2022/01/01 09:25:43;;;;;;;;;;;;;;;;;;7392414;19;19915;-65
2022/01/01 09:28:11;;;;;;;;;;;;;;;;;;7391434;19;19911;-54
2022/01/01 09:30:38;;;;;;;;;;;;;;;;;;7390199;19;20267;-46
2022/01/01 09:33:05;;;;;;;;;;;;;;;;;;7391414;19;19926;-53
2022/01/01 09:35:32;;;;;;;;;;;;;;;;;;7390564;19;19962;-50
2022/01/01 09:37:59;;;;;;;;;;;;;;;;;;7391315;19;19919;-52
2022/01/01 09:40:27;;;;;;;;;;;;;;;;;;7391833;19;19914;-53
2022/01/01 09:42:54;;;;;;;;;;;;;;;;;;7391076;19;19950;-49
2022/01/01 09:45:22;;;;;;;;;;;;;;;;;;7391200;19;19922;-53
2022/01/01 09:47:50;;;;;;;;;;;;;;;;;;7391180;19;19923;-59
2022/01/01 09:50:17;;;;;;;;;;;;;;;;;;7392759;19;19985;-50
2022/01/01 09:52:44;;;;;;;;;;;;;;;;;;7390924;19;19914;-47
2022/01/01 09:55:11;;;;;;;;;;;;;;;;;;7388989;19;19918;-51
2022/01/01 09:57:38;;;;;;;;;;;;;;;;;;7390359;19;19925;-65
2022/01/01 10:00:06;;;;;;;;;;;;;;;;;;7394413;19;20264;-63
2022/01/01 10:02:33;;;;;;;;;;;;;;;;;;7398706;19;19932;-51
2022/01/01 10:05:05;;;;;;;;;;;;;;;;;;7400952;19;19934;-54
2022/01/01 10:07:32;;;;;;;;;;;;;;;;;;7398624;19;20332;-63
2022/01/01 10:10:19;;;;;;;;;;;;;;;;;;7397891;19;19922;-55
2022/01/01 10:12:46;;;;;;;;;;;;;;;;;;7398170;19;20012;-56
2022/01/01 10:15:15;;;;;;;;;;;;;;;;;;7395484;19;19919;-56
2022/01/01 10:17:42;;;;;;;;;;;;;;;;;;7397313;19;19919;-55
2022/01/01 10:20:10;;;;;;;;;;;;;;;;;;7397544;19;19930;-47
2022/01/01 10:22:38;;;;;;;;;;;;;;;;;;7397290;19;19914;-52
2022/01/01 10:27:55;;;;;;;;;;;;;;;;;;7397375;19;19935;-47
2022/01/01 10:30:28;;;;;;;;;;;;;;;;;;7397460;19;19999;-55
2022/01/01 10:33:00;;;;;;;;;;;;;;;;;;7398137;19;19954;-63
2022/01/01 10:35:29;;;;;;;;;;;;;;;;;;7394853;19;19925;-53
2022/01/01 10:37:56;;;;;;;;;;;;;;;;;;7398827;19;19918;-49
2022/01/01 10:40:25;;;;;;;;;;;;;;;;;;7396523;19;19915;-51
2022/01/01 10:42:53;;;;;;;;;;;;;;;;;;7396841;19;19951;-56
2022/01/01 10:45:39;;;;;;;;;;;;;;;;;;7397176;19;19915;-63
2022/01/01 10:48:28;;;;;;;;;;;;;;;;;;7396714;19;19919;-55
2022/01/01 10:50:56;;;;;;;;;;;;;;;;;;7400775;19;19915;-63
2022/01/01 10:53:24;;;;;;;;;;;;;;;;;;7396332;19;19922;-49
2022/01/01 10:55:53;;;;;;;;;;;;;;;;;;7396783;19;19926;-52
2022/01/01 10:58:25;;;;;;;;;;;;;;;;;;7397054;19;20391;-57
2022/01/01 11:00:57;;;;;;;;;;;;;;;;;;7396527;19;19990;-65
2022/01/01 11:03:25;;;;;;;;;;;;;;;;;;7396687;19;19942;-54
2022/01/01 11:06:02;;;;;;;;;;;;;;;;;;7396235;19;19923;-64
2022/01/01 11:08:31;;;;;;;;;;;;;;;;;;7396959;19;19919;-48
2022/01/01 11:10:59;;;;;;;;;;;;;;;;;;7394765;19;19960;-49
2022/01/01 11:13:32;;;;;;;;;;;;;;;;;;7395864;19;19911;-54
2022/01/01 11:16:00;;;;;;;;;;;;;;;;;;7396465;19;19906;-62
2022/01/01 11:18:28;;;;;;;;;;;;;;;;;;7396075;19;20368;-53
2022/01/01 11:20:56;;;;;;;;;;;;;;;;;;7395928;19;19943;-52
2022/01/01 11:23:25;;;;;;;;;;;;;;;;;;7395634;19;19932;-62
2022/01/01 11:25:54;;;;;;;;;;;;;;;;;;7395876;19;19979;-53
2022/01/01 11:28:21;;;;;;;;;;;;;;;;;;7395194;19;20270;-64
2022/01/01 11:31:07;;;;;;;;;;;;;;;;;;7395600;19;19929;-67
2022/01/01 11:33:36;;;;;;;;;;;;;;;;;;7394431;19;19915;-63
2022/01/01 11:36:03;;;;;;;;;;;;;;;;;;7394792;19;19933;-60
2022/01/01 11:38:32;;;;;;;;;;;;;;;;;;7393808;19;19942;-49
2022/01/01 11:41:15;;;;;;;;;;;;;;;;;;7393220;19;19911;-52
2022/01/01 11:44:01;;;;;;;;;;;;;;;;;;7393935;19;20410;-57
2022/01/01 11:46:29;;;;;;;;;;;;;;;;;;7390902;19;19989;-52
2022/01/01 11:48:58;;;;;;;;;;;;;;;;;;7390945;19;19994;-55
2022/01/01 11:51:38;;;;;;;;;;;;;;;;;;7394790;19;19918;-64
2022/01/01 11:54:08;;;;;;;;;;;;;;;;;;7389915;19;20383;-59
2022/01/01 11:56:51;;;;;;;;;;;;;;;;;;7390387;19;20348;-57
2022/01/01 11:59:27;;;;;;;;;;;;;;;;;;7389101;19;20412;-57
2022/01/01 12:01:59;;;;;;;;;;;;;;;;;;7393049;19;19914;-58
2022/01/01 12:04:40;;;;;;;;;;;;;;;;;;7390311;19;20013;-57
2022/01/01 12:07:11;;;;;;;;;;;;;;;;;;7390037;19;19915;-55
2022/01/01 12:09:57;;;;;;;;;;;;;;;;;;7389979;19;19926;-54
2022/01/01 12:12:37;;;;;;;;;;;;;;;;;;7390841;19;19911;-58
2022/01/01 12:15:05;;;;;;;;;;;;;;;;;;7390523;19;19914;-55
2022/01/01 12:17:42;;;;;;;;;;;;;;;;;;7392820;19;19919;-56
2022/01/01 12:20:13;;;;;;;;;;;;;;;;;;7393506;19;19915;-50
2022/01/01 12:22:42;;;;;;;;;;;;;;;;;;7393712;19;19915;-49
2022/01/01 12:25:09;;;;;;;;;;;;;;;;;;7392177;19;19914;-60
2022/01/01 12:27:42;;;;;;;;;;;;;;;;;;7393228;19;19932;-61
2022/01/01 12:30:09;;;;;;;;;;;;;;;;;;7392996;19;19925;-65
2022/01/01 12:32:38;;;;;;;;;;;;;;;;;;7393558;19;19922;-59
2022/01/01 12:35:06;;;;;;;;;;;;;;;;;;7391994;19;19919;-61
2022/01/01 12:37:37;;;;;;;;;;;;;;;;;;7392063;19;19978;-63
2022/01/01 12:40:04;;;;;;;;;;;;;;;;;;7391528;19;19929;-63
2022/01/01 12:42:32;;;;;;;;;;;;;;;;;;7392944;19;19943;-59
2022/01/01 12:45:07;;;;;;;;;;;;;;;;;;7393212;19;19927;-54
2022/01/01 12:47:34;;;;;;;;;;;;;;;;;;7392684;19;19925;-59
2022/01/01 12:50:04;;;;;;;;;;;;;;;;;;7393852;19;20327;-64
2022/01/01 12:52:31;;;;;;;;;;;;;;;;;;7393313;19;19922;-57
2022/01/01 12:54:59;;;;;;;;;;;;;;;;;;7391415;19;19940;-57
2022/01/01 12:57:31;;;;;;;;;;;;;;;;;;7392600;19;19914;-63
2022/01/01 13:00:17;;;;;;;;;;;;;;;;;;7392745;19;19922;-59
2022/01/01 13:02:44;;;;;;;;;;;;;;;;;;7392587;19;20343;-63
2022/01/01 13:05:15;;;;;;;;;;;;;;;;;;7392655;19;19966;-58
2022/01/01 13:07:42;;;;;;;;;;;;;;;;;;7392625;19;19918;-55
2022/01/01 13:10:11;;;;;;;;;;;;;;;;;;7391963;19;20336;-63
2022/01/01 13:12:39;;;;;;;;;;;;;;;;;;7392488;19;19907;-65
2022/01/01 13:15:06;;;;;;;;;;;;;;;;;;7390918;19;19942;-64
2022/01/01 13:17:33;;;;;;;;;;;;;;;;;;7392179;19;19947;-65
2022/01/01 13:20:03;;;;;;;;;;;;;;;;;;7391748;19;19914;-58
2022/01/01 13:22:30;;;;;;;;;;;;;;;;;;7390427;19;19929;-59
2022/01/01 13:24:59;;;;;;;;;;;;;;;;;;7392022;19;19919;-54
2022/01/01 13:27:27;;;;;;;;;;;;;;;;;;7392488;19;19915;-53
2022/01/01 13:29:55;;;;;;;;;;;;;;;;;;7391865;19;19923;-56
2022/01/01 13:32:22;;;;;;;;;;;;;;;;;;7391614;19;19971;-52
2022/01/01 13:34:51;;;;;;;;;;;;;;;;;;7392998;19;19919;-64
2022/01/01 13:37:23;;;;;;;;;;;;;;;;;;7399361;19;20025;-55
2022/01/01 13:39:56;;;;;;;;;;;;;;;;;;7399127;19;19931;-55
2022/01/01 13:42:23;;;;;;;;;;;;;;;;;;7399479;19;19971;-55
2022/01/01 13:44:51;;;;;;;;;;;;;;;;;;7399422;19;19923;-58
2022/01/01 13:47:23;;;;;;;;;;;;;;;;;;7398658;19;19917;-60
2022/01/01 13:49:58;;;;;;;;;;;;;;;;;;7399910;19;19938;-52
2022/01/01 13:52:31;;;;;;;;;;;;;;;;;;7399451;19;19939;-53
2022/01/01 13:55:02;;;;;;;;;;;;;;;;;;7397492;19;19923;-60
2022/01/01 13:57:34;;;;;;;;;;;;;;;;;;7398337;19;20313;-61
2022/01/01 14:00:02;;;;;;;;;;;;;;;;;;7398707;19;19918;-56
2022/01/01 14:02:39;;;;;;;;;;;;;;;;;;7398418;19;19921;-61
2022/01/01 14:05:11;;;;;;;;;;;;;;;;;;7398361;19;19919;-63
2022/01/01 14:07:39;;;;;;;;;;;;;;;;;;7398084;19;19911;-63
2022/01/01 14:10:14;;;;;;;;;;;;;;;;;;7396298;19;19922;-57
2022/01/01 14:12:43;;;;;;;;;;;;;;;;;;7397831;19;19967;-64
2022/01/01 14:15:13;;;;;;;;;;;;;;;;;;7396203;19;19919;-62
2022/01/01 14:17:48;;;;;;;;;;;;;;;;;;7398025;19;19952;-58
2022/01/01 14:20:23;;;;;;;;;;;;;;;;;;7397530;19;19922;-58
2022/01/01 14:22:51;;;;;;;;;;;;;;;;;;7398100;19;19929;-59
2022/01/01 14:25:19;;;;;;;;;;;;;;;;;;7397379;19;20387;-62
2022/01/01 14:27:50;;;;;;;;;;;;;;;;;;7397560;19;19927;-56
2022/01/01 14:30:19;;;;;;;;;;;;;;;;;;7397129;19;19970;-54
2022/01/01 14:32:47;;;;;;;;;;;;;;;;;;7397475;19;19914;-64
2022/01/01 14:35:14;;;;;;;;;;;;;;;;;;7395563;19;19919;-64
2022/01/01 14:37:42;;;;;;;;;;;;;;;;;;7397054;19;19921;-62
2022/01/01 14:40:09;;;;;;;;;;;;;;;;;;7396901;19;19932;-63
2022/01/01 14:42:36;;;;;;;;;;;;;;;;;;7394959;19;19915;-49
2022/01/01 14:45:04;;;;;;;;;;;;;;;;;;7397051;19;19930;-57
2022/01/01 14:47:32;;;;;;;;;;;;;;;;;;7394326;19;19915;-51
2022/01/01 14:50:05;;;;;;;;;;;;;;;;;;7398352;19;19915;-57
2022/01/01 14:52:50;;;;;;;;;;;;;;;;;;7397075;19;19918;-64
2022/01/01 14:55:22;;;;;;;;;;;;;;;;;;7395828;19;19922;-50
2022/01/01 14:57:58;;;;;;;;;;;;;;;;;;7396478;19;20336;-63
2022/01/01 15:00:26;;;;;;;;;;;;;;;;;;7396596;19;19923;-57
2022/01/01 15:02:54;;;;;;;;;;;;;;;;;;7397034;19;19935;-56
2022/01/01 15:05:22;;;;;;;;;;;;;;;;;;7396250;19;20336;-52
2022/01/01 15:07:49;;;;;;;;;;;;;;;;;;7396171;19;19939;-63
2022/01/01 15:10:21;;;;;;;;;;;;;;;;;;7395920;19;20252;-54
2022/01/01 15:12:48;;;;;;;;;;;;;;;;;;7395964;19;19915;-58
2022/01/01 15:15:15;;;;;;;;;;;;;;;;;;7395281;19;19921;-51
2022/01/01 15:17:43;;;;;;;;;;;;;;;;;;7396023;19;19980;-64
2022/01/01 15:20:11;;;;;;;;;;;;;;;;;;7395642;19;20001;-65
2022/01/01 15:22:56;;;;;;;;;;;;;;;;;;7395902;19;19919;-65
2022/01/01 15:25:26;;;;;;;;;;;;;;;;;;7395661;19;19932;-65
2022/01/01 15:27:54;;;;;;;;;;;;;;;;;;7395082;19;19966;-63
2022/01/01 15:30:35;;;;;;;;;;;;;;;;;;7395252;19;19939;-66
2022/01/01 15:33:17;;;;;;;;;;;;;;;;;;7395123;19;19919;-63
2022/01/01 15:36:24;;;;;;;;;;;;;;;;;;7392992;19;19914;-62
2022/01/01 15:38:58;;;;;;;;;;;;;;;;;;7394638;19;19910;-65
2022/01/01 15:43:52;;;;;;;;;;;;;;;;;;7395024;19;19923;-64
2022/01/01 15:46:19;;;;;;;;;;;;;;;;;;7395075;19;19939;-50
2022/01/01 15:48:47;;;;;;;;;;;;;;;;;;7397940;19;19915;-55
2022/01/01 15:51:14;;;;;;;;;;;;;;;;;;7399117;19;19960;-61
2022/01/01 15:53:41;;;;;;;;;;;;;;;;;;7394591;19;20019;-54
2022/01/01 15:56:13;;;;;;;;;;;;;;;;;;7393302;19;19911;-56
2022/01/01 15:58:40;;;;;;;;;;;;;;;;;;7393346;19;19970;-54
2022/01/01 16:01:12;;;;;;;;;;;;;;;;;;7394373;19;19921;-51
2022/01/01 16:04:04;;;;;;;;;;;;;;;;;;7394643;19;19907;-53
2022/01/01 16:06:34;;;;;;;;;;;;;;;;;;7394258;19;19919;-58
2022/01/01 16:09:02;;;;;;;;;;;;;;;;;;7394743;19;19915;-54
2022/01/01 16:11:33;;;;;;;;;;;;;;;;;;7394021;19;19922;-54
2022/01/01 16:14:01;;;;;;;;;;;;;;;;;;7393678;19;19928;-55
2022/01/01 16:16:33;;;;;;;;;;;;;;;;;;7392461;19;19986;-51
2022/01/01 16:19:09;;;;;;;;;;;;;;;;;;7394110;19;19923;-53
2022/01/01 16:21:36;;;;;;;;;;;;;;;;;;7393608;19;19918;-51
2022/01/01 16:24:04;;;;;;;;;;;;;;;;;;7393382;19;19934;-65
2022/01/01 16:26:35;;;;;;;;;;;;;;;;;;7393901;19;19982;-65
2022/01/01 16:29:03;;;;;;;;;;;;;;;;;;7393043;19;19910;-64
2022/01/01 16:31:30;;;;;;;;;;;;;;;;;;7393781;19;20352;-55
2022/01/01 16:33:58;;;;;;;;;;;;;;;;;;7393072;19;19919;-57
2022/01/01 16:36:27;;;;;;;;;;;;;;;;;;7391972;19;20336;-52
2022/01/01 16:38:55;;;;;;;;;;;;;;;;;;7393276;19;19942;-62
2022/01/01 16:41:42;;;;;;;;;;;;;;;;;;7393449;19;19922;-55
2022/01/01 16:44:25;;;;;;;;;;;;;;;;;;7392744;19;19914;-51
2022/01/01 16:46:56;;;;;;;;;;;;;;;;;;7393073;19;19925;-56
2022/01/01 16:49:44;;;;;;;;;;;;;;;;;;7393527;19;20351;-62
2022/01/01 16:52:12;;;;;;;;;;;;;;;;;;7392649;19;19922;-60
2022/01/01 16:54:40;;;;;;;;;;;;;;;;;;7392719;19;19914;-55
2022/01/01 16:57:09;;;;;;;;;;;;;;;;;;7392750;19;19987;-55
2022/01/01 16:59:38;;;;;;;;;;;;;;;;;;7392256;19;19930;-65
2022/01/01 17:02:11;;;;;;;;;;;;;;;;;;7392126;19;19918;-64
2022/01/01 17:04:51;;;;;;;;;;;;;;;;;;7392384;19;20328;-64
2022/01/01 17:07:21;;;;;;;;;;;;;;;;;;7390778;19;19921;-51
2022/01/01 17:09:55;;;;;;;;;;;;;;;;;;7390037;19;19914;-52